Meath Environmental Platform

Observations for Trim Patrick St

Time AQI Temp °C Hum % Pres Pa CO μg/m³ H₂S μg/m³ NO μg/m³ NO₂ μg/m³ O₃ μg/m³ SO₂ μg/m³ PM1 μg/m³ PM2.5 μg/m³ PM10 μg/m³
Thursday 27 August 2026
11:58 3 19.9 77 38,460 0.05 0 1.48 8.94 45.02 0.17 19.14 25.18 27.7
11:57 3 19.9 77 38,460 0.06 0 1.32 9.04 46.25 0 19.14 25.9 28.49
11:56 3 19.9 77 38,460 0.11 0 1.27 8.94 50.96 0 19.14 27.3 30.03
11:55 3 19.9 77 38,460 0.33 1.3 1.37 7.82 53.75 0 20 28.01 28.02
11:54 3 19.9 77 38,460 0.08 0 1.13 8.47 46 0 17.43 25.18 27.7
11:53 3 19.9 77 38,460 0.03 0 1.26 11.69 55.19 0 18.29 26.6 29.25
11:52 3 19.9 77 38,460 0.05 0 1.8 12.13 54.24 0 20 27.3 30.03
11:51 3 19.9 77 38,460 0.05 0 1.58 14.61 55.05 0 19.14 27.29 30.02
11:50 3 19.8 77 38,460 0.07 0 1.71 20.07 42.77 0 18.29 25.15 27.66
11:49 3 19.8 77 38,460 0.04 0 2 11.38 41.55 0 18.29 25.15 27.66
11:48 3 19.8 77 38,460 0.03 0 1.96 10.65 50.75 0 21.72 27.98 30.78
11:47 3 19.8 77 38,460 0.06 0 1.29 12.69 46.42 0 21.72 30.08 32.91
11:46 3 19.8 77 38,460 0.04 0 1.33 9.77 56.69 0 21.72 27.97 30.76
11:45 3 19.8 78 38,460 0.04 0 1.17 10.75 55.9 0 20.86 29.35 30.01
11:44 3 19.7 78 38,460 0.04 0 0.92 12.97 56.3 0 20 27.21 29.93
11:43 3 19.7 78 38,460 0.03 0 0.92 9.42 54.63 0 20.86 28.63 31.5
11:42 3 19.7 78 38,460 0.01 0 1 10 51.69 0 20 29.34 31.4
11:41 3 19.7 78 38,460 0 0 0.9 9.68 55.41 0 18.29 27.24 29.96
11:40 3 19.7 78 38,460 0.01 0 0.91 9.31 55.65 0 20.86 27.93 30.72
11:39 3 19.7 78 38,460 0.01 0 1.66 12.61 56.88 0 19.14 26.53 29.18